Terminal Aerodrome Forecast
Issued by NWS Mt. Holly, NJ

Home | Current Version | Previous Version | Text Only | Print | Product List | Glossary On
Versions: 1 2 3 4 5 6 7 8 9 10 11 12 13 14 15 16 17 18
000
FTUS41 KPHI 292332
TAFILG
TAF
KILG 292332Z 3000/3024 22007KT P6SM SCT250
     FM300400 19008KT P6SM BKN150
     FM300900 21010KT P6SM -RA BKN050
     FM301400 25012G22KT P6SM FEW030 BKN050
     FM301800 27014G24KT P6SM SCT050
     FM302100 29018G26KT P6SM SCT100=

USA.gov is the U.S. government's official web portal to all federal, state and local government web resources and services.